Time;durP1;ratioP1;P1;durP2;ratioP2;P2;SDS_P1;SDS_P2;PMS_P1;PMS_P2;Temp;Humidity;BMP_temperature;BMP_pressure;BME280_temperature;BME280_humidity;BME280_pressure;Samples;Min_cycle;Max_cycle;Signal;HPM_P1;HPM_P2
2023/01/03 00:01:14;;;;;;;1.97;1.83;;;9.50;81.60;;;9.42;72.37;98951.00;5070906;28;20458;-75
2023/01/03 00:03:41;;;;;;;2.03;1.87;;;9.50;81.50;;;9.27;72.38;98938.34;5085140;28;20497;-77
2023/01/03 00:06:17;;;;;;;2.07;1.97;;;9.50;81.60;;;9.26;73.02;98952.84;5076358;28;20439;-78
2023/01/03 00:08:44;;;;;;;2.10;1.50;;;9.40;81.70;;;8.95;72.61;98902.59;5091104;28;20459;-79
2023/01/03 00:11:15;;;;;;;1.60;1.50;;;9.50;81.80;;;9.28;72.11;98966.16;5089250;28;20537;-78
2023/01/03 00:13:43;;;;;;;2.20;1.63;;;9.40;81.70;;;9.20;72.13;98942.81;5088272;28;20638;-78
2023/01/03 00:16:16;;;;;;;1.93;1.73;;;9.50;81.80;;;9.22;71.67;98962.31;5088901;28;20470;-80
2023/01/03 00:18:43;;;;;;;1.73;1.63;;;9.40;81.50;;;9.16;72.26;98946.88;5085564;28;20481;-76
2023/01/03 00:21:11;;;;;;;1.73;1.50;;;9.40;81.60;;;9.19;72.10;98962.69;5091544;28;20915;-76
2023/01/03 00:23:38;;;;;;;1.63;1.53;;;9.40;81.50;;;9.23;72.62;98947.81;5095169;28;20454;-77
2023/01/03 00:26:11;;;;;;;1.70;1.60;;;9.40;81.60;;;9.06;72.24;98928.25;5087101;28;20445;-81
2023/01/03 00:28:40;;;;;;;3.10;1.60;;;9.30;81.60;;;9.08;72.93;98904.66;5113791;28;20461;-78
2023/01/03 00:31:09;;;;;;;1.73;1.63;;;9.30;82.00;;;9.15;72.44;98924.47;5104013;28;20534;-75
2023/01/03 00:33:36;;;;;;;2.93;1.90;;;9.20;82.00;;;9.18;73.09;98904.41;5081522;28;20469;-78
2023/01/03 00:36:07;;;;;;;4.50;2.30;;;9.20;82.20;;;9.07;72.69;98878.72;5082039;28;20478;-77
2023/01/03 00:38:35;;;;;;;2.20;2.00;;;9.30;82.10;;;9.03;73.22;98913.31;5087414;28;20459;-81
2023/01/03 00:41:07;;;;;;;2.50;2.30;;;9.20;82.10;;;8.53;73.20;98867.09;5088143;28;20974;-78
2023/01/03 00:43:35;;;;;;;3.57;2.27;;;9.20;82.40;;;8.75;73.64;98905.81;5071895;28;20513;-77
2023/01/03 00:46:04;;;;;;;2.57;1.93;;;9.20;82.50;;;9.00;73.12;98943.31;5073196;28;20492;-80
2023/01/03 00:48:32;;;;;;;1.60;1.50;;;9.10;82.70;;;8.96;73.52;98952.78;5074508;28;20455;-78
2023/01/03 00:51:06;;;;;;;2.30;2.10;;;9.10;82.90;;;9.02;73.53;98954.78;5089832;28;20458;-77
2023/01/03 00:53:35;;;;;;;1.97;1.87;;;9.10;83.00;;;8.90;73.83;98937.34;5088144;28;20478;-78
2023/01/03 00:56:04;;;;;;;1.83;1.73;;;9.10;83.10;;;8.88;73.40;98950.19;5090811;28;20459;-79
2023/01/03 00:58:32;;;;;;;1.80;1.70;;;9.00;83.20;;;8.82;74.37;98962.50;5090126;28;20836;-77
2023/01/03 01:01:06;;;;;;;4.00;1.93;;;9.00;83.50;;;8.89;74.90;98968.03;5084157;28;20459;-80
2023/01/03 01:03:34;;;;;;;2.53;2.33;;;9.00;83.80;;;8.47;74.64;98909.03;5091356;28;20465;-80
2023/01/03 01:06:12;;;;;;;2.67;2.47;;;9.00;84.00;;;8.82;74.96;98964.34;5069921;28;20967;-78
2023/01/03 01:08:39;;;;;;;2.63;2.20;;;8.90;84.20;;;8.63;76.04;98971.91;5088647;28;20449;-77
2023/01/03 01:11:07;;;;;;;2.27;2.07;;;8.80;84.60;;;8.67;75.13;98967.00;5085988;28;20942;-80
2023/01/03 01:13:34;;;;;;;2.40;2.20;;;8.90;84.70;;;8.34;76.88;98941.09;5074074;28;20444;-79
2023/01/03 01:16:05;;;;;;;2.70;2.50;;;8.80;85.20;;;8.44;76.33;98960.56;5085521;28;20448;-81
2023/01/03 01:18:33;;;;;;;2.77;2.40;;;8.80;85.40;;;8.48;76.28;98951.09;5089762;28;20475;-76
2023/01/03 01:21:04;;;;;;;3.33;2.63;;;8.80;85.80;;;8.26;76.60;98916.91;5069705;28;21419;-77
2023/01/03 01:23:31;;;;;;;2.50;2.30;;;8.80;85.80;;;8.54;76.84;98975.66;5090283;28;20457;-78
2023/01/03 01:26:00;;;;;;;2.30;2.10;;;8.80;86.10;;;8.56;76.55;98979.03;5088741;28;20469;-77
2023/01/03 01:28:28;;;;;;;2.53;2.33;;;8.80;86.10;;;8.48;77.23;98980.72;5083979;28;20532;-76
2023/01/03 01:30:58;;;;;;;2.47;2.27;;;8.80;86.50;;;8.52;76.62;98983.94;5069968;28;20458;-77
2023/01/03 01:33:27;;;;;;;2.60;2.37;;;8.70;86.60;;;8.44;77.36;98975.88;5057429;28;20450;-78
2023/01/03 01:35:54;;;;;;;2.63;2.43;;;8.70;86.80;;;8.59;76.89;98994.84;5068424;28;20660;-78
2023/01/03 01:38:21;;;;;;;3.10;2.73;;;8.70;86.90;;;8.47;76.75;98987.13;5083173;28;20469;-79
2023/01/03 01:40:49;;;;;;;2.70;2.50;;;8.70;87.20;;;8.27;76.69;98959.81;5092107;28;20449;-78
2023/01/03 01:46:16;;;;;;;3.80;3.50;;;8.70;86.90;;;8.48;77.12;99002.28;5083258;28;20431;-79
2023/01/03 01:48:44;;;;;;;3.30;3.00;;;8.70;87.70;;;8.29;77.59;98973.13;5076943;28;20462;-78
2023/01/03 01:51:14;;;;;;;3.00;2.80;;;8.60;88.50;;;8.16;78.25;98963.75;5072365;28;20471;-77
2023/01/03 01:53:42;;;;;;;3.03;2.80;;;8.60;88.70;;;8.46;77.69;99001.63;5091014;28;20539;-78
2023/01/03 01:56:16;;;;;;;3.93;3.07;;;8.70;88.20;;;7.71;77.10;98873.84;5093180;28;20954;-79
2023/01/03 01:58:46;;;;;;;3.23;2.97;;;8.60;88.40;;;8.45;77.38;99009.88;5089880;28;20475;-77
2023/01/03 02:01:16;;;;;;;3.07;2.87;;;8.60;88.30;;;8.56;76.65;99011.34;5072312;28;20960;-77
2023/01/03 02:03:51;;;;;;;3.50;2.90;;;8.70;87.80;;;8.58;76.89;99003.94;5091397;28;20466;-76
2023/01/03 02:06:19;;;;;;;5.63;3.50;;;8.80;87.60;;;8.43;76.96;98990.34;5073820;28;20460;-78
2023/01/03 02:08:46;;;;;;;3.87;3.57;;;8.80;87.50;;;7.64;78.09;98884.47;5073886;28;20446;-77
2023/01/03 02:11:31;;;;;;;3.20;2.90;;;8.70;87.80;;;8.44;77.27;99003.66;5094835;28;20466;-76
2023/01/03 02:14:13;;;;;;;3.63;3.33;;;8.70;87.80;;;8.40;76.96;98996.94;5086307;28;20778;-79
2023/01/03 02:17:09;;;;;;;3.60;3.30;;;8.70;88.00;;;8.60;76.65;99007.28;5097523;28;20450;-78
2023/01/03 02:20:07;;;;;;;3.70;3.40;;;8.70;87.80;;;8.61;76.80;99008.97;5092819;28;20501;-77
2023/01/03 02:23:16;;;;;;;3.63;3.33;;;8.80;87.60;;;8.63;76.38;99006.94;5064627;28;20531;-77
2023/01/03 02:26:42;;;;;;;3.20;3.00;;;8.80;87.40;;;8.58;76.87;99009.34;5098921;28;20455;-78
2023/01/03 02:29:58;;;;;;;3.87;3.57;;;8.80;86.90;;;8.49;77.35;99012.03;5058699;28;20934;-77
2023/01/03 02:32:39;;;;;;;5.07;3.30;;;8.70;87.20;;;8.34;77.04;98990.44;5038865;28;20445;-77
2023/01/03 02:35:15;;;;;;;3.57;3.27;;;8.70;87.10;;;8.41;76.87;99014.75;5072809;28;20454;-77
2023/01/03 02:37:49;;;;;;;3.67;3.10;;;8.70;87.40;;;8.33;77.71;98995.97;5067694;28;20469;-78
2023/01/03 02:40:25;;;;;;;3.63;3.33;;;8.60;87.50;;;8.27;77.32;98992.13;5072135;28;20452;-78
2023/01/03 02:43:01;;;;;;;3.17;2.97;;;8.50;87.60;;;8.27;77.80;98994.81;5087837;28;20453;-76
2023/01/03 02:45:55;;;;;;;4.00;3.63;;;8.50;88.10;;;8.20;77.39;99002.75;5071230;28;20492;-79
2023/01/03 02:48:38;;;;;;;4.60;3.73;;;8.50;88.30;;;8.05;78.50;99015.28;5070699;28;20493;-77
2023/01/03 02:51:15;;;;;;;3.47;3.17;;;8.40;88.80;;;8.04;78.62;99027.06;5099074;28;20459;-78
2023/01/03 02:53:48;;;;;;;3.80;3.50;;;8.30;88.80;;;7.96;78.83;99027.09;5093431;28;20447;-77
2023/01/03 02:56:22;;;;;;;4.00;3.70;;;8.30;89.50;;;7.12;78.93;98901.94;5089277;28;20457;-79
2023/01/03 02:58:56;;;;;;;3.73;3.43;;;8.20;89.80;;;7.90;79.63;99040.22;5069176;28;20474;-76
2023/01/03 03:01:26;;;;;;;4.20;3.70;;;8.10;90.30;;;7.74;78.83;99008.00;5081121;28;20542;-82
2023/01/03 03:03:55;;;;;;;4.07;3.77;;;8.10;90.40;;;7.64;79.30;98998.25;5066551;28;20448;-79
2023/01/03 03:06:32;;;;;;;3.80;3.40;;;8.10;90.30;;;7.86;79.21;99032.66;5069621;28;20446;-78
2023/01/03 03:08:59;;;;;;;3.80;3.50;;;8.10;90.50;;;7.46;79.02;98978.81;5085497;28;20474;-77
2023/01/03 03:14:26;;;;;;;3.97;3.67;;;8.00;90.60;;;7.81;79.41;99035.91;5027731;28;20456;-76
2023/01/03 03:17:00;;;;;;;4.23;3.93;;;8.00;90.80;;;7.64;79.76;99019.78;5079547;28;20507;-78
2023/01/03 03:25:18;;;;;;;4.37;4.07;;;7.90;90.90;;;7.69;79.73;99030.03;5086105;28;20450;-77
2023/01/03 03:30:40;;;;;;;4.20;3.80;;;7.90;90.80;;;7.48;79.51;99017.13;5054597;28;20448;-77
2023/01/03 03:33:10;;;;;;;4.30;4.00;;;7.90;90.90;;;7.60;80.08;99039.97;5062913;28;20442;-80
2023/01/03 03:35:46;;;;;;;4.87;4.47;;;7.90;91.00;;;7.63;80.31;99026.16;5072319;28;20459;-79
2023/01/03 03:38:19;;;;;;;4.57;4.17;;;7.90;91.30;;;7.84;78.90;99019.41;5068068;28;20470;-77
2023/01/03 03:46:43;;;;;;;4.17;3.77;;;7.90;90.70;;;7.74;79.21;99034.91;5074750;28;20522;-77
2023/01/03 03:52:05;;;;;;;4.83;4.50;;;7.80;91.10;;;7.25;79.31;98957.84;5070836;28;20441;-77
2023/01/03 03:54:37;;;;;;;4.47;4.17;;;7.80;91.30;;;7.21;79.53;98970.81;5086679;28;20447;-78
2023/01/03 03:57:13;;;;;;;5.23;4.40;;;7.80;91.50;;;7.72;79.02;99031.53;5070370;28;20441;-79
2023/01/03 03:59:46;;;;;;;4.97;4.47;;;7.90;90.90;;;7.72;79.68;99042.31;5090616;28;20992;-78
2023/01/03 04:02:16;;;;;;;4.57;4.27;;;7.80;91.10;;;7.67;79.80;99042.00;5088695;28;20458;-79
2023/01/03 04:04:48;;;;;;;4.60;4.20;;;7.70;91.30;;;7.30;79.92;98999.34;5088685;28;20455;-79
2023/01/03 04:07:16;;;;;;;5.20;4.80;;;7.70;91.40;;;7.56;79.95;99048.53;5070536;28;20449;-81
2023/01/03 04:09:44;;;;;;;5.00;4.60;;;7.70;91.60;;;7.48;80.51;99058.31;5092709;28;20454;-78
2023/01/03 04:12:11;;;;;;;5.83;4.80;;;7.60;92.00;;;7.37;80.65;99059.50;5071379;28;20451;-80
2023/01/03 04:14:38;;;;;;;6.40;5.80;;;7.50;92.20;;;7.34;80.62;99030.25;5086619;28;20458;-77
2023/01/03 04:17:05;;;;;;;6.30;4.93;;;7.50;92.10;;;6.54;80.54;98928.84;5065364;28;20443;-76
2023/01/03 04:19:33;;;;;;;5.07;4.67;;;7.50;92.40;;;7.05;80.54;99004.75;5087934;28;20507;-77
2023/01/03 04:22:01;;;;;;;5.47;5.07;;;7.50;92.40;;;7.19;81.46;99048.94;5069344;28;20465;-77
2023/01/03 04:24:29;;;;;;;5.73;5.23;;;7.40;92.60;;;6.74;81.68;98985.78;5082364;28;21079;-76
2023/01/03 04:26:57;;;;;;;5.70;5.20;;;7.40;92.80;;;7.26;81.55;99065.22;5068772;28;20923;-79
2023/01/03 04:29:24;;;;;;;5.60;5.10;;;7.30;93.20;;;7.40;81.20;99070.94;5066263;28;20520;-76
2023/01/03 04:31:51;;;;;;;6.17;5.67;;;7.40;93.50;;;6.85;80.91;98965.78;5086082;28;20459;-77
2023/01/03 04:34:19;;;;;;;4.80;4.50;;;7.50;92.70;;;7.47;80.97;99071.91;5067990;28;20462;-76
2023/01/03 04:36:46;;;;;;;5.70;5.23;;;7.50;92.40;;;6.83;80.97;98974.03;5067715;28;20885;-77
2023/01/03 04:39:14;;;;;;;5.53;5.03;;;7.50;93.00;;;7.40;80.89;99057.50;5068765;28;20474;-82
2023/01/03 04:41:42;;;;;;;5.93;5.50;;;7.50;92.90;;;7.19;80.53;99018.50;5087632;28;20451;-76
2023/01/03 04:44:09;;;;;;;6.20;5.63;;;7.50;92.60;;;7.35;80.62;99048.09;5071885;28;20450;-81
2023/01/03 04:46:39;;;;;;;5.50;5.00;;;7.50;92.80;;;7.41;80.79;99057.28;5084642;28;20446;-80
2023/01/03 04:49:09;;;;;;;5.80;5.30;;;7.50;92.60;;;7.45;80.32;99063.19;5097969;28;20926;-76
2023/01/03 04:51:37;;;;;;;6.07;5.50;;;7.50;92.50;;;7.43;80.46;99066.06;5065825;28;20949;-79
2023/01/03 04:54:06;;;;;;;6.00;5.50;;;7.50;92.10;;;7.05;80.39;99006.59;5077782;28;20503;-80
2023/01/03 04:56:36;;;;;;;5.77;5.27;;;7.50;92.00;;;7.01;81.15;99024.91;5091074;28;20456;-76
2023/01/03 04:59:06;;;;;;;5.93;5.43;;;7.40;92.10;;;7.30;80.88;99071.09;5062795;28;20528;-77
2023/01/03 05:01:33;;;;;;;6.00;5.50;;;7.30;92.60;;;7.16;81.16;99069.91;5084382;28;20515;-76
2023/01/03 05:04:02;;;;;;;6.17;5.67;;;7.20;92.70;;;7.01;81.90;99062.50;5073327;28;20451;-81
2023/01/03 05:06:29;;;;;;;6.00;5.40;;;7.10;93.40;;;6.83;81.79;99051.09;5072977;28;20450;-77
2023/01/03 05:08:56;;;;;;;6.43;5.93;;;7.00;93.20;;;6.63;81.95;99036.09;5073994;28;20455;-76
2023/01/03 05:11:24;;;;;;;6.57;6.00;;;7.00;93.90;;;6.59;82.47;99058.94;5090076;28;20473;-77
2023/01/03 05:13:51;;;;;;;6.93;5.70;;;6.80;93.80;;;6.75;83.31;99078.78;5067952;28;20465;-77
2023/01/03 05:16:21;;;;;;;7.40;6.60;;;6.80;95.00;;;6.63;83.09;99070.19;5066132;28;20448;-79
2023/01/03 05:18:52;;;;;;;7.20;6.50;;;6.80;94.40;;;6.18;83.51;99022.06;5084581;28;20473;-80
2023/01/03 05:26:53;;;;;;;6.80;6.10;;;6.40;96.20;;;6.19;85.38;99080.09;5094980;28;20471;-78
2023/01/03 05:29:22;;;;;;;6.20;5.70;;;6.30;96.90;;;6.05;85.30;99072.66;5075988;28;20463;-78
2023/01/03 05:31:52;;;;;;;6.20;5.60;;;6.30;97.60;;;6.08;86.10;99086.59;5067378;28;20463;-76
2023/01/03 05:34:19;;;;;;;7.13;6.53;;;6.30;98.40;;;6.14;86.01;99095.84;5092505;28;20447;-77
2023/01/03 05:36:46;;;;;;;6.60;6.00;;;6.30;98.60;;;6.23;85.60;99097.56;5076837;28;20453;-77
2023/01/03 05:39:14;;;;;;;7.50;6.80;;;6.40;97.50;;;6.04;84.64;99065.63;5067369;28;20538;-76
2023/01/03 05:41:59;;;;;;;6.87;6.30;;;6.30;97.50;;;6.18;85.43;99105.25;5087171;28;20467;-76
2023/01/03 05:44:27;;;;;;;8.40;7.60;;;6.30;98.50;;;6.00;86.25;99105.28;5084017;28;20459;-77
2023/01/03 05:46:55;;;;;;;8.60;7.80;;;6.20;97.90;;;5.89;85.94;99101.06;5071496;28;20453;-76
2023/01/03 05:49:23;;;;;;;8.10;7.30;;;6.10;98.60;;;5.48;86.42;99049.84;5077079;28;20521;-78
2023/01/03 05:51:50;;;;;;;8.90;8.00;;;6.00;99.60;;;5.83;86.81;99123.13;5074778;28;20531;-78
2023/01/03 05:54:20;;;;;;;9.00;8.10;;;5.90;99.90;;;5.87;86.70;99119.16;5090725;28;20447;-78
2023/01/03 05:56:47;;;;;;;9.27;8.37;;;5.90;99.90;;;5.75;87.22;99115.03;5070516;28;20510;-80
2023/01/03 05:59:15;;;;;;;9.73;8.10;;;5.80;99.90;;;5.55;87.69;99071.50;5073543;28;20491;-81
2023/01/03 06:01:43;;;;;;;9.23;8.27;;;5.80;99.90;;;5.39;86.91;99033.72;5072851;28;20971;-78
2023/01/03 06:04:11;;;;;;;9.10;8.20;;;5.90;99.90;;;5.91;87.11;99119.66;5089649;28;20954;-78
2023/01/03 06:06:39;;;;;;;9.90;8.47;;;5.90;99.90;;;5.76;87.97;99095.25;5091868;28;20437;-77
2023/01/03 06:09:06;;;;;;;10.30;8.80;;;6.00;99.90;;;6.02;87.29;99115.91;5082207;28;20469;-73
2023/01/03 06:11:33;;;;;;;12.50;9.90;;;6.10;99.90;;;6.01;87.31;99132.97;5086141;28;20499;-71
2023/01/03 06:14:00;;;;;;;10.00;9.00;;;6.10;99.90;;;5.71;87.43;99092.22;5084794;28;20525;-73
2023/01/03 06:19:14;;;;;;;13.67;9.97;;;6.20;99.90;;;5.89;88.25;99109.09;5072753;28;20802;-71
2023/01/03 06:21:41;;;;;;;11.13;9.93;;;6.10;99.90;;;5.88;87.40;99111.94;5089073;28;20515;-72
2023/01/03 06:24:09;;;;;;;10.80;9.70;;;6.10;99.90;;;5.82;88.65;99140.22;5069825;28;20454;-72
2023/01/03 06:26:37;;;;;;;10.80;8.90;;;6.00;99.90;;;5.86;88.02;99122.84;5087911;28;20449;-71
2023/01/03 06:29:05;;;;;;;12.13;10.90;;;6.10;99.90;;;6.06;88.34;99128.81;5082942;28;21706;-73
2023/01/03 06:31:32;;;;;;;10.50;9.30;;;6.10;99.90;;;5.71;87.82;99054.69;5061651;28;20542;-73
2023/01/03 06:34:00;;;;;;;11.63;10.43;;;6.30;99.90;;;6.30;87.46;99135.34;5068489;28;20456;-77
2023/01/03 06:36:30;;;;;;;10.40;9.20;;;6.40;99.90;;;6.31;86.47;99136.19;5093156;28;20489;-76
2023/01/03 06:38:58;;;;;;;12.27;10.97;;;6.40;99.90;;;6.23;86.56;99132.44;5083411;28;20473;-76
2023/01/03 06:41:26;;;;;;;11.70;9.53;;;6.40;99.70;;;6.09;86.36;99127.69;5088059;28;20874;-75
2023/01/03 06:43:54;;;;;;;9.63;8.67;;;6.40;98.30;;;6.09;86.73;99131.22;5068353;28;20476;-76
2023/01/03 06:54:38;;;;;;;9.50;8.50;;;6.10;98.60;;;5.84;88.02;99151.66;5069275;28;20961;-77
2023/01/03 06:57:06;;;;;;;11.87;10.20;;;6.10;99.90;;;5.83;87.22;99155.31;5079786;28;20906;-77
2023/01/03 06:59:33;;;;;;;10.80;9.70;;;5.90;99.90;;;5.79;87.58;99153.94;5082652;28;20505;-77
2023/01/03 07:02:00;;;;;;;10.70;8.80;;;5.90;99.90;;;5.68;87.88;99153.19;5062872;28;20448;-74
2023/01/03 07:04:27;;;;;;;11.20;10.07;;;5.80;99.90;;;5.66;87.38;99159.72;5062175;28;20758;-75
2023/01/03 07:06:56;;;;;;;13.83;11.17;;;5.70;99.90;;;5.60;87.87;99163.88;5068304;28;20461;-75
2023/01/03 07:09:24;;;;;;;12.50;10.97;;;5.60;99.90;;;5.20;88.49;99116.94;5085632;28;20510;-75
2023/01/03 07:11:51;;;;;;;13.40;10.83;;;5.60;99.90;;;5.64;88.70;99173.28;5084300;28;20470;-74
2023/01/03 07:14:17;;;;;;;12.97;11.67;;;5.70;99.90;;;5.72;88.03;99179.72;5072851;28;20458;-73
2023/01/03 07:16:47;;;;;;;13.20;11.70;;;5.80;99.90;;;5.65;88.00;99169.59;5063129;28;21011;-73
2023/01/03 07:19:17;;;;;;;18.53;13.37;;;5.70;99.90;;;5.60;89.01;99176.41;5077516;28;20479;-76
2023/01/03 07:21:44;;;;;;;13.10;11.03;;;5.70;99.90;;;5.63;88.57;99181.50;5085212;28;20437;-74
2023/01/03 07:24:17;;;;;;;13.50;11.73;;;5.80;99.90;;;5.65;88.90;99185.69;5084731;28;20905;-72
2023/01/03 07:26:44;;;;;;;14.87;11.17;;;5.80;99.90;;;5.64;88.45;99184.00;5080709;28;20479;-75
2023/01/03 07:29:11;;;;;;;17.27;11.93;;;5.80;99.90;;;5.58;88.94;99178.41;5082618;28;20529;-75
2023/01/03 07:31:40;;;;;;;17.20;12.80;;;5.80;99.90;;;5.50;89.35;99172.00;5083696;28;20551;-76
2023/01/03 07:34:08;;;;;;;14.20;11.50;;;5.90;99.90;;;5.65;89.04;99193.72;5086441;28;20469;-74
2023/01/03 07:36:35;;;;;;;16.33;12.93;;;5.90;99.90;;;5.74;88.20;99199.16;5071358;28;20456;-74
2023/01/03 07:39:02;;;;;;;13.20;11.67;;;5.90;99.90;;;5.32;88.34;99122.94;5070501;28;20884;-74
2023/01/03 07:44:12;;;;;;;15.03;12.50;;;5.80;99.90;;;5.65;88.79;99199.09;5062009;28;20498;-75
2023/01/03 07:46:39;;;;;;;15.27;12.90;;;5.70;99.90;;;5.60;88.40;99204.09;5084823;28;20448;-75
2023/01/03 07:49:06;;;;;;;18.03;12.47;;;5.70;99.90;;;5.69;88.54;99213.03;5082979;28;20445;-74
2023/01/03 07:51:34;;;;;;;19.20;12.80;;;5.80;99.90;;;5.85;89.54;99206.97;5059961;28;20475;-74
2023/01/03 07:54:02;;;;;;;15.00;13.47;;;5.90;99.90;;;5.75;88.36;99203.53;5089539;28;20480;-74
2023/01/03 07:56:30;;;;;;;15.60;13.33;;;5.90;99.90;;;5.73;88.29;99208.22;5060995;28;20459;-74
2023/01/03 07:58:57;;;;;;;16.77;11.63;;;5.80;99.90;;;5.71;88.58;99204.84;5079856;28;20529;-73
2023/01/03 08:01:25;;;;;;;16.27;12.53;;;5.80;99.90;;;5.67;88.16;99205.13;5077799;28;20527;-75
2023/01/03 08:03:53;;;;;;;14.47;12.80;;;5.70;99.90;;;5.66;88.22;99214.19;5085204;28;20483;-75
2023/01/03 08:06:22;;;;;;;16.93;13.30;;;5.70;99.90;;;5.66;88.37;99216.03;5086306;28;20808;-74
2023/01/03 08:13:16;;;;;;;14.57;11.70;;;5.60;99.90;;;5.59;88.54;99206.91;5084279;28;20506;-75
2023/01/03 08:14:24;;;;;;;19.03;14.00;;;5.60;99.90;;;5.62;87.88;99218.19;5064094;28;20458;-74
2023/01/03 08:16:51;;;;;;;18.37;15.20;;;5.60;99.90;;;5.58;88.15;99227.53;5064974;28;20464;-72
2023/01/03 08:19:18;;;;;;;20.50;17.17;;;5.60;99.90;;;5.66;88.55;99216.88;5063005;28;20508;-73
2023/01/03 08:21:45;;;;;;;18.37;15.87;;;5.60;99.90;;;5.70;87.93;99235.34;5066148;28;20792;-74
2023/01/03 08:24:12;;;;;;;18.20;14.43;;;5.70;99.90;;;5.78;87.55;99224.69;5078824;28;20451;-75
2023/01/03 08:26:41;;;;;;;16.13;13.10;;;5.80;99.90;;;5.89;87.17;99237.84;5083838;28;20493;-74
2023/01/03 08:29:08;;;;;;;20.63;14.73;;;5.90;99.90;;;6.10;87.02;99228.63;5078400;28;20918;-72
2023/01/03 08:31:42;;;;;;;19.67;14.07;;;6.00;99.90;;;6.19;85.69;99230.41;5083174;28;20793;-74
2023/01/03 08:34:11;;;;;;;16.27;12.90;;;6.20;99.90;;;6.35;85.82;99231.50;5063439;28;20451;-74
2023/01/03 08:36:45;;;;;;;14.47;12.20;;;6.30;99.90;;;6.48;85.60;99231.91;5087565;28;20442;-74
2023/01/03 08:39:17;;;;;;;15.47;13.87;;;6.50;99.90;;;6.57;84.68;99235.47;5085633;28;20997;-76
2023/01/03 08:41:48;;;;;;;19.53;16.80;;;6.60;98.20;;;6.68;83.86;99245.09;5089162;28;20953;-75
2023/01/03 08:44:16;;;;;;;19.60;16.50;;;6.70;95.70;;;6.75;83.32;99243.47;5082794;28;20546;-73
2023/01/03 08:46:49;;;;;;;17.07;14.63;;;6.80;94.40;;;6.83;82.77;99231.06;5065041;28;20478;-78
2023/01/03 08:49:16;;;;;;;12.40;11.10;;;6.90;93.80;;;6.91;81.92;99228.44;5088526;28;21028;-73
2023/01/03 08:51:43;;;;;;;12.07;10.70;;;7.00;93.00;;;6.84;82.00;99244.34;5084497;28;20459;-78
2023/01/03 08:54:11;;;;;;;14.27;10.53;;;7.00;92.50;;;6.96;81.71;99239.53;5082171;28;20446;-76
2023/01/03 08:56:39;;;;;;;13.90;11.73;;;7.10;91.90;;;6.93;81.56;99232.63;5079863;28;21108;-76
2023/01/03 08:59:08;;;;;;;12.17;10.87;;;7.10;91.80;;;7.20;80.98;99243.28;5083980;28;20544;-77
2023/01/03 09:01:35;;;;;;;15.50;11.43;;;7.20;92.20;;;7.32;80.16;99238.47;5083935;28;20458;-76
2023/01/03 09:04:04;;;;;;;13.30;11.00;;;7.40;91.20;;;7.51;79.10;99256.16;5093807;28;20476;-77
2023/01/03 09:06:31;;;;;;;11.97;10.70;;;7.50;90.90;;;7.77;77.94;99260.53;5075814;28;20870;-76
2023/01/03 09:08:59;;;;;;;11.80;10.53;;;7.70;90.30;;;7.94;78.11;99261.41;5072598;28;20462;-77
2023/01/03 09:11:26;;;;;;;14.37;12.87;;;7.80;90.30;;;7.90;76.87;99266.28;5070863;28;20455;-77
2023/01/03 09:13:55;;;;;;;13.53;9.30;;;7.90;88.70;;;7.88;76.60;99254.84;5068158;28;20440;-76
2023/01/03 09:16:24;;;;;;;9.93;8.93;;;8.00;88.30;;;8.10;75.04;99270.50;5083058;28;20475;-79
2023/01/03 09:18:51;;;;;;;10.13;9.03;;;8.10;87.00;;;8.20;75.84;99266.59;5090435;28;20482;-77
2023/01/03 09:21:18;;;;;;;9.70;8.70;;;8.20;86.70;;;8.40;74.49;99274.31;5062016;28;20476;-77
2023/01/03 09:23:46;;;;;;;11.63;9.60;;;8.30;85.80;;;8.18;74.65;99273.16;5087637;28;20450;-76
2023/01/03 09:26:13;;;;;;;11.83;10.60;;;8.40;85.30;;;8.20;75.96;99274.69;5067388;28;20456;-76
2023/01/03 09:28:40;;;;;;;12.00;9.33;;;8.30;85.60;;;8.30;74.63;99277.19;5064155;28;20462;-75
2023/01/03 09:31:07;;;;;;;11.10;9.97;;;8.40;85.20;;;8.33;74.57;99276.03;5084058;28;20462;-76
2023/01/03 09:33:36;;;;;;;11.03;10.03;;;8.40;85.20;;;8.12;74.97;99280.09;5065350;28;20491;-76
2023/01/03 09:36:04;;;;;;;9.50;8.50;;;8.30;85.10;;;8.33;73.20;99282.22;5079914;28;20465;-77
2023/01/03 09:38:31;;;;;;;13.30;11.23;;;8.40;84.50;;;8.18;74.68;99287.47;5082557;28;21400;-77
2023/01/03 09:41:01;;;;;;;13.93;10.60;;;8.30;84.90;;;7.84;76.08;99283.09;5085513;28;21130;-77
2023/01/03 09:43:39;;;;;;;11.17;9.93;;;8.10;85.30;;;7.72;76.67;99276.34;5084907;28;20452;-77
2023/01/03 09:46:13;;;;;;;11.03;9.93;;;8.10;85.60;;;7.76;76.26;99285.75;5086248;28;20479;-76
2023/01/03 09:48:43;;;;;;;11.40;9.97;;;8.10;85.70;;;7.65;77.19;99293.13;5085276;28;20519;-77
2023/01/03 10:05:45;;;;;;;13.20;10.90;;;8.30;84.80;;;8.06;75.30;99269.97;5079289;28;20453;-76
2023/01/03 10:08:27;;;;;;;10.07;9.07;;;8.20;84.90;;;8.18;73.97;99278.53;5066261;28;20492;-76
2023/01/03 10:11:05;;;;;;;12.20;9.67;;;8.30;84.70;;;8.16;74.81;99281.41;5088086;28;20457;-75
2023/01/03 10:14:02;;;;;;;11.00;9.90;;;8.30;84.90;;;8.30;73.86;99276.38;5085727;28;20454;-77
2023/01/03 10:16:42;;;;;;;9.80;8.80;;;8.40;84.50;;;8.09;74.51;99275.00;5078130;28;20466;-77
2023/01/03 10:19:38;;;;;;;11.77;10.60;;;8.40;84.10;;;7.99;74.30;99260.91;5066124;28;20818;-76
2023/01/03 10:22:11;;;;;;;9.30;7.87;;;8.30;84.20;;;7.95;73.89;99260.41;5084261;28;20478;-77
2023/01/03 10:24:45;;;;;;;9.00;8.10;;;8.30;83.90;;;8.11;74.38;99273.00;5064897;28;20966;-76
2023/01/03 10:27:18;;;;;;;9.50;8.30;;;8.30;84.10;;;8.19;74.13;99281.06;5080238;28;20444;-76
2023/01/03 10:29:47;;;;;;;10.77;8.83;;;8.30;84.20;;;8.23;73.80;99274.34;5085323;28;20438;-76
2023/01/03 10:32:35;;;;;;;9.70;8.23;;;8.30;83.90;;;8.06;73.76;99253.81;5065742;28;20478;-77
2023/01/03 10:35:18;;;;;;;9.30;8.20;;;8.30;83.70;;;8.32;73.17;99268.97;5060613;28;20842;-76
2023/01/03 10:37:49;;;;;;;8.60;7.80;;;8.30;83.90;;;8.34;73.38;99272.31;5070201;28;20566;-76
2023/01/03 10:40:17;;;;;;;9.67;8.67;;;8.30;83.80;;;8.38;72.57;99262.88;5086353;28;20548;-77
2023/01/03 10:42:45;;;;;;;11.17;10.03;;;8.40;83.70;;;8.17;73.08;99264.25;5078585;28;20500;-76
2023/01/03 10:45:16;;;;;;;11.00;9.90;;;8.30;83.60;;;8.36;72.57;99259.53;5068077;28;20451;-76
2023/01/03 10:47:44;;;;;;;10.80;8.97;;;8.40;83.80;;;8.46;72.54;99254.78;5080744;28;20459;-75
2023/01/03 10:50:22;;;;;;;8.37;7.47;;;8.50;83.30;;;8.41;71.69;99250.94;5077071;28;20459;-76
2023/01/03 10:52:58;;;;;;;9.10;8.20;;;8.50;82.40;;;8.06;72.05;99243.06;5086056;28;20454;-75
2023/01/03 10:55:26;;;;;;;7.50;6.80;;;8.40;82.30;;;8.24;72.36;99245.56;5080917;28;20539;-77
2023/01/03 10:58:03;;;;;;;8.40;6.90;;;8.40;82.80;;;8.19;71.75;99231.78;5075037;28;20528;-76
2023/01/03 11:00:33;;;;;;;7.27;6.60;;;8.40;82.60;;;8.04;72.73;99245.09;5060944;28;20511;-77
2023/01/03 11:03:14;;;;;;;14.63;7.50;;;8.40;82.40;;;8.10;73.19;99238.19;5065307;28;20460;-75
2023/01/03 11:05:44;;;;;;;9.00;7.50;;;8.30;82.90;;;8.12;72.53;99237.00;5083415;28;20458;-76
2023/01/03 11:08:23;;;;;;;8.30;7.50;;;8.30;82.60;;;8.15;72.93;99244.75;5080121;28;20449;-76
2023/01/03 11:10:56;;;;;;;8.50;7.60;;;8.30;82.90;;;8.14;72.60;99243.06;5082820;28;20504;-76
2023/01/03 11:13:29;;;;;;;7.50;6.80;;;8.30;83.10;;;8.01;72.80;99245.41;5084861;28;20477;-76
2023/01/03 11:15:58;;;;;;;8.00;7.20;;;8.20;82.90;;;7.86;72.49;99216.50;5067096;28;20475;-78
2023/01/03 11:18:27;;;;;;;8.77;7.87;;;8.20;83.00;;;8.06;73.34;99243.06;5078151;28;20479;-76
2023/01/03 11:21:07;;;;;;;9.33;8.40;;;8.20;83.00;;;8.00;73.44;99243.75;5073094;28;20470;-78
2023/01/03 11:23:54;;;;;;;9.63;8.10;;;8.20;83.10;;;8.23;72.30;99243.91;5084789;28;20523;-76
2023/01/03 11:26:38;;;;;;;8.77;7.87;;;8.30;83.10;;;8.09;72.59;99223.88;5081509;28;20469;-76
2023/01/03 11:29:28;;;;;;;8.13;7.43;;;8.30;82.60;;;8.14;72.58;99226.06;5082576;28;20599;-79
2023/01/03 11:32:09;;;;;;;7.37;6.60;;;8.30;82.50;;;8.19;71.73;99229.94;5089282;28;20547;-76
2023/01/03 11:35:02;;;;;;;8.07;7.27;;;8.30;82.40;;;8.21;72.49;99224.38;5083229;28;20916;-76
2023/01/03 11:37:43;;;;;;;7.80;7.07;;;8.40;82.40;;;8.14;72.41;99221.53;5079367;28;20512;-77
2023/01/03 11:40:25;;;;;;;6.90;6.20;;;8.40;82.50;;;8.28;71.74;99224.53;5081197;28;20467;-75
2023/01/03 11:43:06;;;;;;;7.87;6.63;;;8.40;82.10;;;8.43;71.43;99222.81;5080021;28;22837;-76
2023/01/03 11:46:07;;;;;;;8.23;6.40;;;8.50;82.40;;;8.09;70.66;99167.34;5084149;28;20954;-77